sensor_id;sensor_type;location;lat;lon;timestamp;pressure;altitude;pressure_sealevel;temperature;humidity
28432;BME280;15664;51.302;7.744;2022-07-04T00:00:06;97462.19;;;13.25;73.36
28432;BME280;15664;51.302;7.744;2022-07-04T00:02:32;97452.56;;;13.17;73.75
28432;BME280;15664;51.302;7.744;2022-07-04T00:04:57;97455.50;;;13.09;74.07
28432;BME280;15664;51.302;7.744;2022-07-04T00:07:23;97456.59;;;13.01;74.46
28432;BME280;15664;51.302;7.744;2022-07-04T00:09:48;97457.66;;;12.93;74.48
28432;BME280;15664;51.302;7.744;2022-07-04T00:12:13;97461.44;;;12.86;74.89
28432;BME280;15664;51.302;7.744;2022-07-04T00:14:39;97458.16;;;12.77;75.53
28432;BME280;15664;51.302;7.744;2022-07-04T00:17:04;97454.53;;;12.64;75.97
28432;BME280;15664;51.302;7.744;2022-07-04T00:19:29;97460.13;;;12.56;76.48
28432;BME280;15664;51.302;7.744;2022-07-04T00:21:55;97461.19;;;12.49;76.87
28432;BME280;15664;51.302;7.744;2022-07-04T00:24:20;97443.72;;;12.39;77.44
28432;BME280;15664;51.302;7.744;2022-07-04T00:26:45;97446.84;;;12.36;77.64
28432;BME280;15664;51.302;7.744;2022-07-04T00:29:11;97448.91;;;12.27;78.06
28432;BME280;15664;51.302;7.744;2022-07-04T00:31:36;97437.41;;;12.27;78.11
28432;BME280;15664;51.302;7.744;2022-07-04T00:34:01;97441.53;;;12.23;78.03
28432;BME280;15664;51.302;7.744;2022-07-04T00:36:27;97443.19;;;12.17;77.73
28432;BME280;15664;51.302;7.744;2022-07-04T00:38:52;97441.53;;;12.16;77.93
28432;BME280;15664;51.302;7.744;2022-07-04T00:41:17;97441.97;;;12.13;77.50
28432;BME280;15664;51.302;7.744;2022-07-04T00:43:43;97436.22;;;12.09;77.29
28432;BME280;15664;51.302;7.744;2022-07-04T00:46:08;97440.75;;;12.09;77.36
28432;BME280;15664;51.302;7.744;2022-07-04T00:48:34;97441.16;;;12.06;77.34
28432;BME280;15664;51.302;7.744;2022-07-04T00:50:59;97445.28;;;12.02;77.10
28432;BME280;15664;51.302;7.744;2022-07-04T00:53:25;97445.09;;;11.96;76.62
28432;BME280;15664;51.302;7.744;2022-07-04T00:55:51;97446.53;;;11.92;76.74
28432;BME280;15664;51.302;7.744;2022-07-04T00:58:20;97445.31;;;11.88;76.17
28432;BME280;15664;51.302;7.744;2022-07-04T01:00:46;97443.47;;;11.82;76.31
28432;BME280;15664;51.302;7.744;2022-07-04T01:03:11;97443.66;;;11.80;76.76
28432;BME280;15664;51.302;7.744;2022-07-04T01:05:38;97437.94;;;11.77;76.29
28432;BME280;15664;51.302;7.744;2022-07-04T01:08:04;97441.19;;;11.79;75.51
28432;BME280;15664;51.302;7.744;2022-07-04T01:10:30;97436.06;;;11.77;74.73
28432;BME280;15664;51.302;7.744;2022-07-04T01:12:55;97430.94;;;11.76;74.67
28432;BME280;15664;51.302;7.744;2022-07-04T01:15:21;97433.38;;;11.77;74.00
28432;BME280;15664;51.302;7.744;2022-07-04T01:17:46;97428.84;;;11.78;73.63
28432;BME280;15664;51.302;7.744;2022-07-04T01:20:13;97425.59;;;11.76;74.33
28432;BME280;15664;51.302;7.744;2022-07-04T01:22:39;97428.88;;;11.71;74.01
28432;BME280;15664;51.302;7.744;2022-07-04T01:25:05;97431.56;;;11.64;74.25
28432;BME280;15664;51.302;7.744;2022-07-04T01:27:30;97417.00;;;11.60;75.01
28432;BME280;15664;51.302;7.744;2022-07-04T01:29:55;97419.25;;;11.57;75.40
28432;BME280;15664;51.302;7.744;2022-07-04T01:32:21;97411.84;;;11.52;75.72
28432;BME280;15664;51.302;7.744;2022-07-04T01:34:46;97417.41;;;11.51;75.73
28432;BME280;15664;51.302;7.744;2022-07-04T01:37:11;97423.16;;;11.47;75.84
28432;BME280;15664;51.302;7.744;2022-07-04T01:39:37;97424.19;;;11.40;76.01
28432;BME280;15664;51.302;7.744;2022-07-04T01:42:02;97430.56;;;11.32;76.07
28432;BME280;15664;51.302;7.744;2022-07-04T01:44:28;97428.72;;;11.26;76.27
28432;BME280;15664;51.302;7.744;2022-07-04T01:46:53;97433.00;;;11.20;76.43
28432;BME280;15664;51.302;7.744;2022-07-04T01:49:19;97435.06;;;11.18;76.66
28432;BME280;15664;51.302;7.744;2022-07-04T01:51:48;97433.84;;;11.14;77.07
28432;BME280;15664;51.302;7.744;2022-07-04T01:54:14;97438.13;;;11.08;77.10
28432;BME280;15664;51.302;7.744;2022-07-04T01:56:40;97438.75;;;11.04;77.70
28432;BME280;15664;51.302;7.744;2022-07-04T01:59:06;97438.94;;;10.95;77.75
28432;BME280;15664;51.302;7.744;2022-07-04T02:01:31;97435.03;;;10.91;78.11
28432;BME280;15664;51.302;7.744;2022-07-04T02:04:01;97440.75;;;10.88;78.53
28432;BME280;15664;51.302;7.744;2022-07-04T02:06:28;97438.31;;;10.87;78.25
28432;BME280;15664;51.302;7.744;2022-07-04T02:08:53;97435.03;;;10.85;78.83
28432;BME280;15664;51.302;7.744;2022-07-04T02:11:38;97440.97;;;10.80;78.67
28432;BME280;15664;51.302;7.744;2022-07-04T02:14:22;97442.41;;;10.76;78.81
28432;BME280;15664;51.302;7.744;2022-07-04T02:16:47;97447.31;;;10.72;78.90
28432;BME280;15664;51.302;7.744;2022-07-04T02:19:13;97451.19;;;10.70;79.01
28432;BME280;15664;51.302;7.744;2022-07-04T02:21:38;97446.50;;;10.72;79.68
28432;BME280;15664;51.302;7.744;2022-07-04T02:24:04;97448.94;;;10.66;79.53
28432;BME280;15664;51.302;7.744;2022-07-04T02:26:29;97458.34;;;10.62;79.72
28432;BME280;15664;51.302;7.744;2022-07-04T02:28:55;97453.41;;;10.59;80.25
28432;BME280;15664;51.302;7.744;2022-07-04T02:31:20;97456.69;;;10.55;80.15
28432;BME280;15664;51.302;7.744;2022-07-04T02:33:46;97463.22;;;10.52;80.14
28432;BME280;15664;51.302;7.744;2022-07-04T02:36:11;97464.25;;;10.51;80.83
28432;BME280;15664;51.302;7.744;2022-07-04T02:38:36;97472.00;;;10.46;80.71
28432;BME280;15664;51.302;7.744;2022-07-04T02:41:02;97466.47;;;10.41;81.02
28432;BME280;15664;51.302;7.744;2022-07-04T02:43:27;97477.53;;;10.38;80.95
28432;BME280;15664;51.302;7.744;2022-07-04T02:45:52;97468.06;;;10.35;80.73
28432;BME280;15664;51.302;7.744;2022-07-04T02:48:18;97469.69;;;10.29;80.74
28432;BME280;15664;51.302;7.744;2022-07-04T02:50:43;97477.44;;;10.24;80.91
28432;BME280;15664;51.302;7.744;2022-07-04T02:53:09;97482.31;;;10.14;81.77
28432;BME280;15664;51.302;7.744;2022-07-04T02:55:34;97479.59;;;10.07;82.09
28432;BME280;15664;51.302;7.744;2022-07-04T02:57:59;97482.44;;;10.06;82.38
28432;BME280;15664;51.302;7.744;2022-07-04T03:00:25;97478.34;;;10.03;82.84
28432;BME280;15664;51.302;7.744;2022-07-04T03:02:50;97477.53;;;10.02;83.15
28432;BME280;15664;51.302;7.744;2022-07-04T03:05:15;97486.53;;;10.01;83.32
28432;BME280;15664;51.302;7.744;2022-07-04T03:07:41;97498.00;;;10.02;83.51
28432;BME280;15664;51.302;7.744;2022-07-04T03:10:06;97492.09;;;10.07;84.01
28432;BME280;15664;51.302;7.744;2022-07-04T03:12:32;97499.69;;;10.10;84.58
28432;BME280;15664;51.302;7.744;2022-07-04T03:14:58;97512.63;;;10.13;84.79
28432;BME280;15664;51.302;7.744;2022-07-04T03:17:25;97507.75;;;10.16;84.97
28432;BME280;15664;51.302;7.744;2022-07-04T03:19:50;97503.84;;;10.19;84.75
28432;BME280;15664;51.302;7.744;2022-07-04T03:22:16;97513.47;;;10.20;84.88
28432;BME280;15664;51.302;7.744;2022-07-04T03:24:41;97507.78;;;10.23;84.93
28432;BME280;15664;51.302;7.744;2022-07-04T03:27:06;97515.97;;;10.22;84.85
28432;BME280;15664;51.302;7.744;2022-07-04T03:29:31;97521.28;;;10.22;84.80
28432;BME280;15664;51.302;7.744;2022-07-04T03:31:57;97512.47;;;10.21;84.99
28432;BME280;15664;51.302;7.744;2022-07-04T03:34:22;97510.44;;;10.23;84.96
28432;BME280;15664;51.302;7.744;2022-07-04T03:36:47;97511.44;;;10.22;84.85
28432;BME280;15664;51.302;7.744;2022-07-04T03:39:13;97524.56;;;10.24;85.20
28432;BME280;15664;51.302;7.744;2022-07-04T03:41:38;97530.75;;;10.24;84.93
28432;BME280;15664;51.302;7.744;2022-07-04T03:44:04;97526.00;;;10.26;85.27
28432;BME280;15664;51.302;7.744;2022-07-04T03:46:29;97525.00;;;10.27;85.29
28432;BME280;15664;51.302;7.744;2022-07-04T03:48:54;97526.66;;;10.28;85.24
28432;BME280;15664;51.302;7.744;2022-07-04T03:51:20;97526.66;;;10.28;85.48
28432;BME280;15664;51.302;7.744;2022-07-04T03:53:48;97523.16;;;10.28;85.13
28432;BME280;15664;51.302;7.744;2022-07-04T03:56:14;97526.66;;;10.28;85.25
28432;BME280;15664;51.302;7.744;2022-07-04T03:58:39;97518.88;;;10.27;85.59
28432;BME280;15664;51.302;7.744;2022-07-04T04:01:07;97535.03;;;10.25;85.41
28432;BME280;15664;51.302;7.744;2022-07-04T04:03:33;97534.63;;;10.22;85.24
28432;BME280;15664;51.302;7.744;2022-07-04T04:06:17;97542.16;;;10.18;85.72
28432;BME280;15664;51.302;7.744;2022-07-04T04:08:42;97542.53;;;10.15;85.89
28432;BME280;15664;51.302;7.744;2022-07-04T04:11:08;97539.28;;;10.13;85.84
28432;BME280;15664;51.302;7.744;2022-07-04T04:13:33;97540.91;;;10.14;86.12
28432;BME280;15664;51.302;7.744;2022-07-04T04:15:58;97538.25;;;10.14;85.98
28432;BME280;15664;51.302;7.744;2022-07-04T04:18:24;97540.13;;;10.20;86.41
28432;BME280;15664;51.302;7.744;2022-07-04T04:20:49;97534.41;;;10.23;86.44
28432;BME280;15664;51.302;7.744;2022-07-04T04:23:15;97541.19;;;10.26;86.14
28432;BME280;15664;51.302;7.744;2022-07-04T04:25:40;97527.66;;;10.27;85.97
28432;BME280;15664;51.302;7.744;2022-07-04T04:28:06;97535.25;;;10.30;86.33
28432;BME280;15664;51.302;7.744;2022-07-04T04:30:31;97534.88;;;10.33;86.18
28432;BME280;15664;51.302;7.744;2022-07-04T04:32:56;97539.19;;;10.34;86.19
28432;BME280;15664;51.302;7.744;2022-07-04T04:35:22;97536.16;;;10.38;86.15
28432;BME280;15664;51.302;7.744;2022-07-04T04:37:47;97537.19;;;10.43;85.86
28432;BME280;15664;51.302;7.744;2022-07-04T04:40:12;97545.25;;;10.50;86.19
28432;BME280;15664;51.302;7.744;2022-07-04T04:42:38;97539.53;;;10.60;86.18
28432;BME280;15664;51.302;7.744;2022-07-04T04:45:04;97550.50;;;10.72;86.26
28432;BME280;15664;51.302;7.744;2022-07-04T04:47:29;97543.31;;;10.79;85.90
28432;BME280;15664;51.302;7.744;2022-07-04T04:49:55;97542.13;;;10.88;85.64
28432;BME280;15664;51.302;7.744;2022-07-04T04:52:20;97545.44;;;10.97;85.46
28432;BME280;15664;51.302;7.744;2022-07-04T04:54:45;97539.09;;;11.05;85.01
28432;BME280;15664;51.302;7.744;2022-07-04T04:57:11;97545.28;;;11.12;84.92
28432;BME280;15664;51.302;7.744;2022-07-04T04:59:36;97546.13;;;11.19;84.40
28432;BME280;15664;51.302;7.744;2022-07-04T05:02:02;97546.13;;;11.26;84.01
28432;BME280;15664;51.302;7.744;2022-07-04T05:04:28;97550.47;;;11.33;84.05
28432;BME280;15664;51.302;7.744;2022-07-04T05:06:53;97552.94;;;11.42;84.06
28432;BME280;15664;51.302;7.744;2022-07-04T05:09:19;97548.84;;;11.46;83.68
28432;BME280;15664;51.302;7.744;2022-07-04T05:11:45;97548.22;;;11.51;83.75
28432;BME280;15664;51.302;7.744;2022-07-04T05:14:11;97551.53;;;11.53;84.01
28432;BME280;15664;51.302;7.744;2022-07-04T05:16:37;97550.50;;;11.54;83.97
28432;BME280;15664;51.302;7.744;2022-07-04T05:19:02;97551.72;;;11.58;84.12
28432;BME280;15664;51.302;7.744;2022-07-04T05:21:27;97556.44;;;11.62;84.51
28432;BME280;15664;51.302;7.744;2022-07-04T05:23:56;97554.19;;;11.66;83.90
28432;BME280;15664;51.302;7.744;2022-07-04T05:26:23;97555.03;;;11.73;84.04
28432;BME280;15664;51.302;7.744;2022-07-04T05:28:48;97548.03;;;11.79;83.65
28432;BME280;15664;51.302;7.744;2022-07-04T05:31:14;97551.75;;;11.85;83.65
28432;BME280;15664;51.302;7.744;2022-07-04T05:33:39;97548.63;;;11.94;83.54
28432;BME280;15664;51.302;7.744;2022-07-04T05:36:05;97558.34;;;12.02;83.61
28432;BME280;15664;51.302;7.744;2022-07-04T05:38:31;97567.38;;;12.08;83.36
28432;BME280;15664;51.302;7.744;2022-07-04T05:40:56;97562.84;;;12.15;83.37
28432;BME280;15664;51.302;7.744;2022-07-04T05:43:22;97565.31;;;12.23;83.06
28432;BME280;15664;51.302;7.744;2022-07-04T05:45:47;97566.09;;;12.30;83.04
28432;BME280;15664;51.302;7.744;2022-07-04T05:48:15;97570.00;;;12.41;82.60
28432;BME280;15664;51.302;7.744;2022-07-04T05:50:41;97559.28;;;12.48;82.26
28432;BME280;15664;51.302;7.744;2022-07-04T05:53:06;97561.53;;;12.58;82.31
28432;BME280;15664;51.302;7.744;2022-07-04T05:55:31;97565.22;;;12.63;82.04
28432;BME280;15664;51.302;7.744;2022-07-04T05:57:57;97563.56;;;12.69;81.84
28432;BME280;15664;51.302;7.744;2022-07-04T06:00:22;97568.03;;;12.75;81.69
28432;BME280;15664;51.302;7.744;2022-07-04T06:02:47;97570.28;;;12.85;81.61
28432;BME280;15664;51.302;7.744;2022-07-04T06:05:13;97564.72;;;12.93;81.37
28432;BME280;15664;51.302;7.744;2022-07-04T06:07:38;97569.59;;;13.03;81.09
28432;BME280;15664;51.302;7.744;2022-07-04T06:10:05;97563.56;;;13.15;80.43
28432;BME280;15664;51.302;7.744;2022-07-04T06:12:30;97567.63;;;13.24;80.56
28432;BME280;15664;51.302;7.744;2022-07-04T06:14:56;97572.31;;;13.35;79.88
28432;BME280;15664;51.302;7.744;2022-07-04T06:17:21;97573.13;;;13.42;79.75
28432;BME280;15664;51.302;7.744;2022-07-04T06:19:46;97572.22;;;13.55;78.71
28432;BME280;15664;51.302;7.744;2022-07-04T06:22:12;97579.47;;;13.80;78.73
28432;BME280;15664;51.302;7.744;2022-07-04T06:24:38;97579.09;;;14.02;76.67
28432;BME280;15664;51.302;7.744;2022-07-04T06:27:03;97580.81;;;14.40;76.46
28432;BME280;15664;51.302;7.744;2022-07-04T06:29:29;97581.16;;;14.87;74.47
28432;BME280;15664;51.302;7.744;2022-07-04T06:31:54;97571.41;;;15.23;72.86
28432;BME280;15664;51.302;7.744;2022-07-04T06:34:19;97582.34;;;15.10;72.10
28432;BME280;15664;51.302;7.744;2022-07-04T06:37:03;97577.84;;;15.22;72.41
28432;BME280;15664;51.302;7.744;2022-07-04T06:39:29;97578.41;;;14.94;72.15
28432;BME280;15664;51.302;7.744;2022-07-04T06:41:54;97582.06;;;15.00;71.86
28432;BME280;15664;51.302;7.744;2022-07-04T06:44:19;97585.63;;;14.93;71.10
28432;BME280;15664;51.302;7.744;2022-07-04T06:46:44;97578.56;;;14.81;70.75
28432;BME280;15664;51.302;7.744;2022-07-04T06:49:11;97569.78;;;15.22;70.92
28432;BME280;15664;51.302;7.744;2022-07-04T06:51:37;97571.06;;;15.50;68.61
28432;BME280;15664;51.302;7.744;2022-07-04T06:54:02;97572.59;;;15.58;69.30
28432;BME280;15664;51.302;7.744;2022-07-04T06:56:27;97570.25;;;15.50;67.64
28432;BME280;15664;51.302;7.744;2022-07-04T06:58:53;97568.31;;;15.81;66.58
28432;BME280;15664;51.302;7.744;2022-07-04T07:01:18;97567.69;;;16.09;64.85
28432;BME280;15664;51.302;7.744;2022-07-04T07:03:43;97577.28;;;16.05;64.08
28432;BME280;15664;51.302;7.744;2022-07-04T07:06:09;97568.41;;;16.28;64.38
28432;BME280;15664;51.302;7.744;2022-07-04T07:08:34;97567.56;;;16.28;64.09
28432;BME280;15664;51.302;7.744;2022-07-04T07:10:59;97559.72;;;15.90;64.88
28432;BME280;15664;51.302;7.744;2022-07-04T07:13:45;97570.63;;;16.19;63.31
28432;BME280;15664;51.302;7.744;2022-07-04T07:16:11;97569.66;;;16.49;61.63
28432;BME280;15664;51.302;7.744;2022-07-04T07:18:37;97561.44;;;16.92;61.13
28432;BME280;15664;51.302;7.744;2022-07-04T07:21:03;97570.41;;;17.38;58.93
28432;BME280;15664;51.302;7.744;2022-07-04T07:23:28;97562.88;;;17.69;58.36
28432;BME280;15664;51.302;7.744;2022-07-04T07:25:53;97551.09;;;17.00;59.51
28432;BME280;15664;51.302;7.744;2022-07-04T07:28:19;97553.81;;;16.88;58.95
28432;BME280;15664;51.302;7.744;2022-07-04T07:30:44;97561.69;;;16.66;55.90
28432;BME280;15664;51.302;7.744;2022-07-04T07:33:10;97555.94;;;17.27;56.28
28432;BME280;15664;51.302;7.744;2022-07-04T07:35:36;97558.84;;;17.54;55.87
28432;BME280;15664;51.302;7.744;2022-07-04T07:38:01;97558.63;;;17.73;56.09
28432;BME280;15664;51.302;7.744;2022-07-04T07:40:26;97560.91;;;17.81;55.65
28432;BME280;15664;51.302;7.744;2022-07-04T07:42:52;97556.47;;;17.58;57.20
28432;BME280;15664;51.302;7.744;2022-07-04T07:45:20;97559.88;;;16.96;57.14
28432;BME280;15664;51.302;7.744;2022-07-04T07:47:45;97568.19;;;17.35;55.79
28432;BME280;15664;51.302;7.744;2022-07-04T07:50:11;97563.66;;;17.52;55.24
28432;BME280;15664;51.302;7.744;2022-07-04T07:52:36;97556.31;;;17.94;54.04
28432;BME280;15664;51.302;7.744;2022-07-04T07:55:02;97555.56;;;18.15;54.08
28432;BME280;15664;51.302;7.744;2022-07-04T07:57:28;97554.81;;;18.03;53.60
28432;BME280;15664;51.302;7.744;2022-07-04T07:59:53;97559.47;;;18.25;51.00
28432;BME280;15664;51.302;7.744;2022-07-04T08:02:18;97562.13;;;18.02;51.97
28432;BME280;15664;51.302;7.744;2022-07-04T08:04:44;97553.91;;;18.14;52.55
28432;BME280;15664;51.302;7.744;2022-07-04T08:07:10;97560.59;;;18.29;49.98
28432;BME280;15664;51.302;7.744;2022-07-04T08:09:39;97557.06;;;17.60;53.11
28432;BME280;15664;51.302;7.744;2022-07-04T08:12:06;97557.59;;;17.45;54.13
28432;BME280;15664;51.302;7.744;2022-07-04T08:14:33;97555.75;;;18.09;52.63
28432;BME280;15664;51.302;7.744;2022-07-04T08:16:58;97555.06;;;18.18;51.74
28432;BME280;15664;51.302;7.744;2022-07-04T08:19:24;97561.06;;;18.43;51.54
28432;BME280;15664;51.302;7.744;2022-07-04T08:21:51;97560.28;;;18.64;51.15
28432;BME280;15664;51.302;7.744;2022-07-04T08:24:16;97561.47;;;18.91;50.45
28432;BME280;15664;51.302;7.744;2022-07-04T08:26:42;97565.78;;;18.92;50.22
28432;BME280;15664;51.302;7.744;2022-07-04T08:29:07;97559.28;;;18.48;50.86
28432;BME280;15664;51.302;7.744;2022-07-04T08:31:33;97557.75;;;18.18;50.83
28432;BME280;15664;51.302;7.744;2022-07-04T08:33:58;97559.97;;;18.04;51.63
28432;BME280;15664;51.302;7.744;2022-07-04T08:36:24;97563.31;;;18.29;50.40
28432;BME280;15664;51.302;7.744;2022-07-04T08:38:49;97563.41;;;19.17;49.29
28432;BME280;15664;51.302;7.744;2022-07-04T08:41:16;97559.84;;;19.39;47.58
28432;BME280;15664;51.302;7.744;2022-07-04T08:43:42;97557.66;;;19.36;48.54
28432;BME280;15664;51.302;7.744;2022-07-04T08:46:09;97560.25;;;18.81;50.16
28432;BME280;15664;51.302;7.744;2022-07-04T08:48:37;97567.50;;;18.98;49.63
28432;BME280;15664;51.302;7.744;2022-07-04T08:51:16;97562.75;;;19.32;49.38
28432;BME280;15664;51.302;7.744;2022-07-04T08:53:49;97563.75;;;19.81;48.00
28432;BME280;15664;51.302;7.744;2022-07-04T08:56:19;97557.06;;;20.21;46.52
28432;BME280;15664;51.302;7.744;2022-07-04T08:59:04;97559.88;;;20.37;46.73
28432;BME280;15664;51.302;7.744;2022-07-04T09:01:30;97557.91;;;20.22;45.42
28432;BME280;15664;51.302;7.744;2022-07-04T09:03:56;97558.00;;;19.72;47.01
28432;BME280;15664;51.302;7.744;2022-07-04T09:06:21;97566.28;;;19.11;48.43
28432;BME280;15664;51.302;7.744;2022-07-04T09:08:49;97566.13;;;18.56;49.86
28432;BME280;15664;51.302;7.744;2022-07-04T09:11:14;97569.94;;;18.04;50.55
28432;BME280;15664;51.302;7.744;2022-07-04T09:13:40;97568.84;;;18.78;50.81
28432;BME280;15664;51.302;7.744;2022-07-04T09:16:05;97565.16;;;19.29;47.89
28432;BME280;15664;51.302;7.744;2022-07-04T09:18:35;97563.97;;;19.74;48.20
28432;BME280;15664;51.302;7.744;2022-07-04T09:21:03;97573.75;;;20.93;45.32
28432;BME280;15664;51.302;7.744;2022-07-04T09:23:34;97575.91;;;20.43;44.84
28432;BME280;15664;51.302;7.744;2022-07-04T09:26:20;97575.75;;;21.19;43.81
28432;BME280;15664;51.302;7.744;2022-07-04T09:28:54;97579.94;;;20.03;45.83
28432;BME280;15664;51.302;7.744;2022-07-04T09:31:24;97577.69;;;19.40;45.85
28432;BME280;15664;51.302;7.744;2022-07-04T09:33:57;97576.34;;;18.54;49.04
28432;BME280;15664;51.302;7.744;2022-07-04T09:36:28;97581.47;;;18.73;49.38
28432;BME280;15664;51.302;7.744;2022-07-04T09:39:12;97575.88;;;19.46;48.09
28432;BME280;15664;51.302;7.744;2022-07-04T09:41:56;97570.94;;;20.30;45.56
28432;BME280;15664;51.302;7.744;2022-07-04T09:44:23;97570.97;;;20.35;44.71
28432;BME280;15664;51.302;7.744;2022-07-04T09:46:49;97565.28;;;19.66;45.50
28432;BME280;15664;51.302;7.744;2022-07-04T09:49:14;97566.38;;;18.94;48.15
28432;BME280;15664;51.302;7.744;2022-07-04T09:51:48;97564.75;;;18.93;48.32
28432;BME280;15664;51.302;7.744;2022-07-04T09:54:28;97559.94;;;19.77;48.46
28432;BME280;15664;51.302;7.744;2022-07-04T09:56:59;97558.13;;;21.26;44.97
28432;BME280;15664;51.302;7.744;2022-07-04T09:59:26;97561.72;;;22.66;42.14
28432;BME280;15664;51.302;7.744;2022-07-04T10:02:11;97565.13;;;23.08;40.19
28432;BME280;15664;51.302;7.744;2022-07-04T10:04:45;97563.22;;;23.03;39.78
28432;BME280;15664;51.302;7.744;2022-07-04T10:07:10;97560.94;;;23.31;38.99
28432;BME280;15664;51.302;7.744;2022-07-04T10:09:36;97555.63;;;23.00;39.20
28432;BME280;15664;51.302;7.744;2022-07-04T10:12:01;97553.94;;;21.98;41.05
28432;BME280;15664;51.302;7.744;2022-07-04T10:14:27;97552.63;;;21.01;42.89
28432;BME280;15664;51.302;7.744;2022-07-04T10:16:52;97557.25;;;20.52;44.99
28432;BME280;15664;51.302;7.744;2022-07-04T10:19:18;97553.44;;;20.96;45.53
28432;BME280;15664;51.302;7.744;2022-07-04T10:21:46;97550.84;;;21.27;43.59
28432;BME280;15664;51.302;7.744;2022-07-04T10:24:11;97548.78;;;22.06;42.97
28432;BME280;15664;51.302;7.744;2022-07-04T10:26:38;97554.19;;;21.65;40.56
28432;BME280;15664;51.302;7.744;2022-07-04T10:29:03;97554.47;;;22.46;40.15
28432;BME280;15664;51.302;7.744;2022-07-04T10:31:29;97549.53;;;22.48;39.44
28432;BME280;15664;51.302;7.744;2022-07-04T10:33:58;97543.81;;;21.52;40.13
28432;BME280;15664;51.302;7.744;2022-07-04T10:36:25;97551.22;;;20.83;42.25
28432;BME280;15664;51.302;7.744;2022-07-04T10:38:59;97549.75;;;20.64;42.58
28432;BME280;15664;51.302;7.744;2022-07-04T10:41:28;97538.31;;;21.10;41.46
28432;BME280;15664;51.302;7.744;2022-07-04T10:43:59;97540.63;;;22.06;39.98
28432;BME280;15664;51.302;7.744;2022-07-04T10:46:26;97535.28;;;22.92;37.92
28432;BME280;15664;51.302;7.744;2022-07-04T10:51:42;97535.19;;;23.13;36.42
28432;BME280;15664;51.302;7.744;2022-07-04T10:54:09;97533.63;;;23.91;36.05
28432;BME280;15664;51.302;7.744;2022-07-04T10:59:25;97527.00;;;24.56;34.48
28432;BME280;15664;51.302;7.744;2022-07-04T11:01:57;97523.97;;;24.04;34.99
28432;BME280;15664;51.302;7.744;2022-07-04T11:04:47;97526.16;;;24.07;35.22
28432;BME280;15664;51.302;7.744;2022-07-04T11:07:17;97529.91;;;24.12;35.78
28432;BME280;15664;51.302;7.744;2022-07-04T11:09:43;97529.66;;;23.34;36.17
28432;BME280;15664;51.302;7.744;2022-07-04T11:12:10;97518.78;;;23.34;37.77
28432;BME280;15664;51.302;7.744;2022-07-04T11:14:39;97522.47;;;24.47;36.89
28432;BME280;15664;51.302;7.744;2022-07-04T11:17:07;97530.16;;;24.15;34.73
28432;BME280;15664;51.302;7.744;2022-07-04T11:19:33;97523.97;;;23.30;36.16
28432;BME280;15664;51.302;7.744;2022-07-04T11:21:58;97512.81;;;23.66;35.78
28432;BME280;15664;51.302;7.744;2022-07-04T11:24:24;97523.03;;;23.85;34.72
28432;BME280;15664;51.302;7.744;2022-07-04T11:26:50;97520.41;;;23.35;35.72
28432;BME280;15664;51.302;7.744;2022-07-04T11:29:16;97520.72;;;22.68;38.05
28432;BME280;15664;51.302;7.744;2022-07-04T11:31:44;97515.13;;;22.07;39.62
28432;BME280;15664;51.302;7.744;2022-07-04T11:34:10;97515.69;;;22.90;37.85
28432;BME280;15664;51.302;7.744;2022-07-04T11:36:38;97512.25;;;22.74;37.94
28432;BME280;15664;51.302;7.744;2022-07-04T11:39:06;97514.53;;;22.41;38.40
28432;BME280;15664;51.302;7.744;2022-07-04T11:41:35;97516.97;;;21.35;39.81
28432;BME280;15664;51.302;7.744;2022-07-04T11:44:29;97517.47;;;21.26;41.48
28432;BME280;15664;51.302;7.744;2022-07-04T11:47:18;97518.59;;;22.39;38.54
28432;BME280;15664;51.302;7.744;2022-07-04T11:49:54;97513.97;;;22.34;38.75
28432;BME280;15664;51.302;7.744;2022-07-04T11:52:26;97518.38;;;21.68;40.21
28432;BME280;15664;51.302;7.744;2022-07-04T11:54:52;97516.22;;;21.70;39.87
28432;BME280;15664;51.302;7.744;2022-07-04T11:57:26;97516.22;;;21.81;39.47
28432;BME280;15664;51.302;7.744;2022-07-04T12:00:06;97513.38;;;22.63;37.22
28432;BME280;15664;51.302;7.744;2022-07-04T12:02:34;97510.88;;;23.72;35.26
28432;BME280;15664;51.302;7.744;2022-07-04T12:05:01;97512.56;;;24.02;33.15
28432;BME280;15664;51.302;7.744;2022-07-04T12:07:29;97512.78;;;25.27;32.39
28432;BME280;15664;51.302;7.744;2022-07-04T12:10:07;97515.00;;;25.63;32.09
28432;BME280;15664;51.302;7.744;2022-07-04T12:12:33;97504.53;;;25.70;32.95
28432;BME280;15664;51.302;7.744;2022-07-04T12:15:04;97510.72;;;25.57;33.19
28432;BME280;15664;51.302;7.744;2022-07-04T12:17:37;97504.06;;;24.87;33.84
28432;BME280;15664;51.302;7.744;2022-07-04T12:20:14;97510.50;;;24.72;33.72
28432;BME280;15664;51.302;7.744;2022-07-04T12:22:49;97494.88;;;25.21;33.43
28432;BME280;15664;51.302;7.744;2022-07-04T12:25:32;97499.13;;;25.08;33.61
28432;BME280;15664;51.302;7.744;2022-07-04T12:28:06;97498.31;;;21.79;39.38
28432;BME280;15664;51.302;7.744;2022-07-04T12:30:34;97503.09;;;22.55;38.96
28432;BME280;15664;51.302;7.744;2022-07-04T12:33:05;97501.75;;;22.52;38.08
28432;BME280;15664;51.302;7.744;2022-07-04T12:35:46;97494.44;;;21.39;38.97
28432;BME280;15664;51.302;7.744;2022-07-04T12:38:21;97489.84;;;22.02;40.03
28432;BME280;15664;51.302;7.744;2022-07-04T12:43:44;97492.41;;;24.03;35.98
28432;BME280;15664;51.302;7.744;2022-07-04T12:46:26;97495.16;;;25.19;33.83
28432;BME280;15664;51.302;7.744;2022-07-04T12:48:53;97496.34;;;24.16;33.77
28432;BME280;15664;51.302;7.744;2022-07-04T12:51:21;97497.34;;;23.27;35.62
28432;BME280;15664;51.302;7.744;2022-07-04T12:53:50;97501.66;;;22.73;36.46
28432;BME280;15664;51.302;7.744;2022-07-04T12:59:04;97493.47;;;23.73;34.40
28432;BME280;15664;51.302;7.744;2022-07-04T13:01:30;97488.44;;;25.12;33.89
28432;BME280;15664;51.302;7.744;2022-07-04T13:03:57;97489.22;;;26.63;29.87
28432;BME280;15664;51.302;7.744;2022-07-04T13:06:23;97486.47;;;26.08;30.76
28432;BME280;15664;51.302;7.744;2022-07-04T13:08:48;97488.81;;;25.95;30.72
28432;BME280;15664;51.302;7.744;2022-07-04T13:11:14;97483.28;;;24.18;31.55